Time;durP1;ratioP1;P1;durP2;ratioP2;P2;SDS_P1;SDS_P2;PMS_P1;PMS_P2;Temp;Humidity;BMP_temperature;BMP_pressure;BME280_temperature;BME280_humidity;BME280_pressure;Samples;Min_cycle;Max_cycle;Signal;HPM_P1;HPM_P2
2023/08/13 00:00:49;;;;;;;10.20;4.05;;;15.20;99.90;;;;;;4990932;28;20050;-81
2023/08/13 00:03:14;;;;;;;7.70;3.40;;;15.20;99.90;;;;;;4990463;28;20077;-82
2023/08/13 00:05:40;;;;;;;11.20;3.45;;;15.20;99.90;;;;;;4990036;28;20050;-81
2023/08/13 00:08:06;;;;;;;11.98;3.30;;;15.30;99.90;;;;;;4987674;28;20107;-81
2023/08/13 00:10:31;;;;;;;11.35;3.10;;;15.40;99.90;;;;;;4975717;28;20096;-81
2023/08/13 00:12:57;;;;;;;8.02;3.28;;;15.40;99.90;;;;;;4978798;28;20042;-81
2023/08/13 00:15:23;;;;;;;10.45;3.20;;;15.50;99.90;;;;;;4988769;28;20057;-80
2023/08/13 00:17:48;;;;;;;11.57;2.95;;;15.60;99.90;;;;;;4990735;28;20042;-81
2023/08/13 00:20:14;;;;;;;10.82;3.30;;;15.70;99.90;;;;;;4990460;28;20100;-81
2023/08/13 00:22:40;;;;;;;8.45;2.95;;;15.80;99.90;;;;;;4991052;28;20065;-81
2023/08/13 00:25:07;;;;;;;7.50;2.70;;;15.80;99.90;;;;;;4989260;28;20416;-81
2023/08/13 00:27:33;;;;;;;7.60;2.90;;;15.90;99.90;;;;;;4989173;28;20051;-81
2023/08/13 00:29:58;;;;;;;9.68;2.88;;;15.90;99.90;;;;;;4982135;28;20054;-81
2023/08/13 00:32:24;;;;;;;9.18;2.95;;;16.00;99.90;;;;;;4989400;28;20050;-81
2023/08/13 00:34:54;;;;;;;8.15;2.70;;;16.00;99.90;;;;;;4990271;28;20093;-81
2023/08/13 00:37:19;;;;;;;6.93;3.00;;;16.10;99.90;;;;;;4978232;28;20050;-81
2023/08/13 00:39:45;;;;;;;8.25;3.10;;;16.10;99.90;;;;;;4983117;28;21355;-81
2023/08/13 00:42:11;;;;;;;11.90;3.63;;;16.20;99.90;;;;;;4975543;28;20047;-81
2023/08/13 00:44:36;;;;;;;9.18;3.47;;;16.20;99.90;;;;;;4981254;28;20113;-81
2023/08/13 00:47:02;;;;;;;11.32;2.85;;;16.30;99.90;;;;;;4988930;28;20645;-82
2023/08/13 00:49:27;;;;;;;6.97;2.92;;;16.30;99.90;;;;;;4989490;28;20046;-81
2023/08/13 00:51:53;;;;;;;9.18;2.85;;;16.30;99.90;;;;;;4989310;28;20073;-81
2023/08/13 00:54:19;;;;;;;9.70;2.80;;;16.40;99.90;;;;;;4987329;28;20412;-81
2023/08/13 00:56:46;;;;;;;11.00;3.00;;;16.40;99.90;;;;;;4989798;28;20053;-82
2023/08/13 00:59:12;;;;;;;10.57;3.13;;;16.50;99.90;;;;;;4989521;28;20517;-81
2023/08/13 01:01:38;;;;;;;9.02;3.00;;;16.30;99.90;;;;;;4988854;28;20184;-81
2023/08/13 01:04:04;;;;;;;9.57;2.92;;;16.30;99.90;;;;;;4988083;28;20404;-81
2023/08/13 01:06:49;;;;;;;8.85;3.10;;;16.20;99.90;;;;;;4976551;28;20050;-81
2023/08/13 01:09:26;;;;;;;12.43;3.20;;;16.20;99.90;;;;;;4987088;28;20524;-81
2023/08/13 01:12:17;;;;;;;8.02;3.60;;;16.20;99.90;;;;;;4990323;28;20050;-81
2023/08/13 01:14:42;;;;;;;10.15;3.00;;;16.10;99.90;;;;;;4988520;28;20042;-81
2023/08/13 01:17:11;;;;;;;10.68;3.35;;;16.10;99.90;;;;;;4988991;28;20412;-81
2023/08/13 01:19:37;;;;;;;14.20;3.75;;;16.10;99.90;;;;;;4989294;28;20146;-81
2023/08/13 01:22:03;;;;;;;9.10;3.10;;;16.00;99.90;;;;;;4987434;28;20176;-81
2023/08/13 01:24:28;;;;;;;7.55;3.03;;;16.00;99.90;;;;;;4987553;28;20089;-81
2023/08/13 01:27:23;;;;;;;10.60;3.47;;;16.00;99.90;;;;;;4988478;28;20050;-79
2023/08/13 01:29:56;;;;;;;8.23;2.90;;;15.90;99.90;;;;;;4984386;28;20046;-81
2023/08/13 01:32:33;;;;;;;10.95;3.30;;;15.90;99.90;;;;;;4984820;28;20555;-80
2023/08/13 01:34:59;;;;;;;9.88;3.00;;;15.90;99.90;;;;;;4986713;28;20042;-81
2023/08/13 01:37:25;;;;;;;10.00;3.10;;;15.90;99.90;;;;;;4976098;28;20035;-81
2023/08/13 01:39:51;;;;;;;10.20;3.55;;;15.90;99.90;;;;;;4968959;28;20077;-80
2023/08/13 01:42:17;;;;;;;11.88;3.75;;;15.90;99.90;;;;;;4987327;28;20046;-81
2023/08/13 01:44:43;;;;;;;9.43;3.70;;;15.90;99.90;;;;;;4987856;28;20049;-81
2023/08/13 01:47:08;;;;;;;8.57;3.50;;;16.20;99.90;;;;;;4986261;28;20034;-81
2023/08/13 01:49:34;;;;;;;6.60;2.88;;;15.90;99.90;;;;;;4970062;28;20059;-81
2023/08/13 01:52:00;;;;;;;11.55;3.30;;;15.90;99.90;;;;;;4969282;28;20145;-81
2023/08/13 01:54:25;;;;;;;13.05;4.03;;;15.90;99.90;;;;;;4976152;28;20174;-80
2023/08/13 01:56:51;;;;;;;10.00;2.95;;;15.90;99.90;;;;;;4987364;28;20049;-81
2023/08/13 01:59:17;;;;;;;6.80;2.70;;;15.80;99.90;;;;;;4987493;28;20038;-81
2023/08/13 02:01:43;;;;;;;10.45;3.55;;;15.80;99.90;;;;;;4988153;28;20133;-81
2023/08/13 02:04:08;;;;;;;10.30;3.53;;;15.70;99.90;;;;;;4983049;28;20081;-81
2023/08/13 02:06:35;;;;;;;11.63;3.88;;;15.80;99.90;;;;;;4970621;28;20704;-80
2023/08/13 02:09:02;;;;;;;10.57;3.50;;;15.70;99.90;;;;;;4985699;28;20048;-81
2023/08/13 02:11:28;;;;;;;12.60;3.75;;;15.60;99.90;;;;;;4987927;28;20169;-81
2023/08/13 02:13:53;;;;;;;10.23;3.65;;;15.70;99.90;;;;;;4986172;28;20385;-80
2023/08/13 02:16:19;;;;;;;16.58;3.92;;;15.70;99.90;;;;;;4969473;28;20045;-81
2023/08/13 02:18:44;;;;;;;10.20;3.33;;;15.60;99.90;;;;;;4986625;28;20891;-81
2023/08/13 02:21:10;;;;;;;10.52;3.80;;;15.60;99.90;;;;;;4987405;28;20101;-81
2023/08/13 02:23:36;;;;;;;14.05;3.80;;;15.60;99.90;;;;;;4985640;28;20061;-81
2023/08/13 02:26:01;;;;;;;10.52;3.30;;;15.50;99.90;;;;;;4986724;28;20137;-81
2023/08/13 02:28:27;;;;;;;12.00;3.80;;;15.50;99.90;;;;;;4986829;28;20197;-81
2023/08/13 02:30:52;;;;;;;11.70;3.60;;;15.50;99.90;;;;;;4981694;28;20046;-81
2023/08/13 02:33:18;;;;;;;13.63;3.63;;;15.50;99.90;;;;;;4983486;28;20481;-80
2023/08/13 02:35:44;;;;;;;9.40;3.80;;;15.70;99.90;;;;;;4962074;28;20053;-80
2023/08/13 02:38:09;;;;;;;9.30;3.40;;;15.40;99.90;;;;;;4945281;28;1043539;-80
2023/08/13 02:40:35;;;;;;;8.25;4.15;;;15.40;99.90;;;;;;4987277;28;20061;-80
2023/08/13 02:43:02;;;;;;;11.82;3.72;;;15.30;99.90;;;;;;4988328;28;20078;-81
2023/08/13 02:45:28;;;;;;;10.32;3.63;;;15.30;99.90;;;;;;4985534;28;21013;-81
2023/08/13 02:47:53;;;;;;;13.73;3.80;;;15.30;99.90;;;;;;4986000;28;20043;-80
2023/08/13 02:50:19;;;;;;;12.05;3.88;;;15.30;99.90;;;;;;4985563;28;20611;-81
2023/08/13 02:52:45;;;;;;;13.05;4.13;;;15.30;99.90;;;;;;4986760;28;20145;-80
2023/08/13 02:55:10;;;;;;;10.57;3.70;;;15.20;99.90;;;;;;4986500;28;20054;-80
2023/08/13 02:57:36;;;;;;;10.05;4.03;;;15.20;99.90;;;;;;4986639;28;20050;-81
2023/08/13 03:00:02;;;;;;;9.02;3.63;;;15.20;99.90;;;;;;4986946;28;20042;-80
2023/08/13 03:02:28;;;;;;;11.88;3.70;;;15.10;99.90;;;;;;4970511;28;20101;-81
2023/08/13 03:04:54;;;;;;;8.98;3.55;;;15.10;99.90;;;;;;4969530;28;20582;-81
2023/08/13 03:07:19;;;;;;;9.45;4.47;;;15.10;99.90;;;;;;4980505;28;20453;-81
2023/08/13 03:09:45;;;;;;;11.95;4.03;;;15.10;99.90;;;;;;4977321;28;20046;-81
2023/08/13 03:12:11;;;;;;;12.10;3.78;;;15.10;99.90;;;;;;4986461;28;20053;-81
2023/08/13 03:14:36;;;;;;;11.27;4.30;;;15.00;99.90;;;;;;4980860;28;20058;-81
2023/08/13 03:17:02;;;;;;;13.13;4.68;;;15.00;99.90;;;;;;4984878;28;20555;-80
2023/08/13 03:19:27;;;;;;;10.57;4.53;;;14.90;99.90;;;;;;4986211;28;20042;-81
2023/08/13 03:21:53;;;;;;;10.35;3.88;;;14.90;99.90;;;;;;4986513;28;20046;-80
2023/08/13 03:24:18;;;;;;;11.27;3.85;;;14.90;99.90;;;;;;4985006;28;20046;-81
2023/08/13 03:26:44;;;;;;;12.60;4.20;;;14.90;99.90;;;;;;4978633;28;20125;-81
2023/08/13 03:29:10;;;;;;;10.77;3.90;;;14.80;99.90;;;;;;4966604;28;20046;-81
2023/08/13 03:31:35;;;;;;;11.43;4.10;;;14.90;99.90;;;;;;4974418;28;20050;-81
2023/08/13 03:34:01;;;;;;;17.80;5.53;;;15.40;99.90;;;;;;4981262;28;20038;-81
2023/08/13 03:36:26;;;;;;;16.13;4.32;;;14.80;99.90;;;;;;4984681;28;20041;-81
2023/08/13 03:38:52;;;;;;;12.15;4.80;;;14.80;99.90;;;;;;4968945;28;20062;-81
2023/08/13 03:41:17;;;;;;;12.57;3.97;;;14.80;99.90;;;;;;4982814;28;20050;-81
2023/08/13 03:43:43;;;;;;;11.02;4.32;;;14.80;99.90;;;;;;4969522;28;20050;-81
2023/08/13 03:46:09;;;;;;;9.45;3.88;;;14.80;99.90;;;;;;4969804;28;20053;-81
2023/08/13 03:48:34;;;;;;;9.15;3.88;;;14.80;99.90;;;;;;4967986;28;20042;-80
2023/08/13 03:51:04;;;;;;;8.90;3.55;;;14.80;99.90;;;;;;4985849;28;20121;-81
2023/08/13 03:53:30;;;;;;;13.60;4.22;;;15.00;99.90;;;;;;4985300;28;20789;-81
2023/08/13 03:55:55;;;;;;;19.30;4.60;;;14.80;99.90;;;;;;4975243;28;20138;-80
2023/08/13 03:58:21;;;;;;;11.02;3.72;;;14.80;99.90;;;;;;4986958;28;20133;-81
2023/08/13 04:00:46;;;;;;;8.98;4.00;;;14.80;99.90;;;;;;4976806;28;20043;-81
2023/08/13 04:03:12;;;;;;;12.00;3.65;;;14.80;99.90;;;;;;4979885;28;20057;-81
2023/08/13 04:05:37;;;;;;;13.10;4.38;;;14.80;99.90;;;;;;4986319;28;20045;-80
2023/08/13 04:08:03;;;;;;;9.80;4.38;;;14.80;99.90;;;;;;4971163;28;20097;-81
2023/08/13 04:10:29;;;;;;;14.70;4.03;;;14.80;99.90;;;;;;4983845;28;20054;-81
2023/08/13 04:13:00;;;;;;;10.18;3.65;;;14.80;99.90;;;;;;4972886;28;20497;-80
2023/08/13 04:15:26;;;;;;;12.65;4.60;;;14.80;99.90;;;;;;4983092;28;20050;-81
2023/08/13 04:17:52;;;;;;;9.95;4.20;;;14.80;99.90;;;;;;4985024;28;20070;-81
2023/08/13 04:20:18;;;;;;;8.23;3.55;;;14.80;99.90;;;;;;4956733;28;20065;-81
2023/08/13 04:22:43;;;;;;;12.00;4.10;;;14.80;99.90;;;;;;4969147;28;20046;-80
2023/08/13 04:25:09;;;;;;;11.35;3.97;;;15.00;99.90;;;;;;4967877;28;20069;-80
2023/08/13 04:27:35;;;;;;;15.77;4.43;;;14.90;99.90;;;;;;4986610;28;20440;-80
2023/08/13 04:30:01;;;;;;;12.13;4.20;;;15.00;99.90;;;;;;4979386;28;20143;-81
2023/08/13 04:32:27;;;;;;;11.90;4.28;;;15.00;99.90;;;;;;4970974;28;20035;-80
2023/08/13 04:34:52;;;;;;;11.88;4.10;;;15.10;99.90;;;;;;4981053;28;20055;-81
2023/08/13 04:37:18;;;;;;;11.68;3.78;;;15.10;99.90;;;;;;4990093;28;20678;-81
2023/08/13 04:39:43;;;;;;;10.10;4.00;;;15.20;99.90;;;;;;4979188;28;20154;-80
2023/08/13 04:42:09;;;;;;;12.32;4.45;;;15.20;99.90;;;;;;4972902;28;20046;-81
2023/08/13 04:44:35;;;;;;;10.52;3.42;;;15.30;99.90;;;;;;4987884;28;20046;-81
2023/08/13 04:47:00;;;;;;;10.18;3.90;;;15.30;99.90;;;;;;4989762;28;20046;-81
2023/08/13 04:49:26;;;;;;;10.60;4.05;;;15.40;99.90;;;;;;4989375;28;20066;-81
2023/08/13 04:51:52;;;;;;;7.38;3.72;;;15.40;99.90;;;;;;4990143;28;20077;-80
2023/08/13 04:54:18;;;;;;;11.27;4.15;;;15.50;99.90;;;;;;4988514;28;20121;-81
2023/08/13 04:56:43;;;;;;;10.65;3.70;;;15.50;99.90;;;;;;4987904;28;20126;-80
2023/08/13 04:59:09;;;;;;;16.10;4.68;;;15.60;99.90;;;;;;4974301;28;20080;-81
2023/08/13 05:01:34;;;;;;;8.40;4.05;;;15.50;99.90;;;;;;4989236;28;20070;-81
2023/08/13 05:04:00;;;;;;;8.10;3.53;;;15.60;99.90;;;;;;4987809;28;20050;-81
2023/08/13 05:06:26;;;;;;;10.35;3.80;;;15.60;99.90;;;;;;4986939;28;20038;-80
2023/08/13 05:08:51;;;;;;;10.50;3.80;;;15.60;99.90;;;;;;4998696;28;20038;-81
2023/08/13 05:11:19;;;;;;;8.70;3.70;;;15.70;99.90;;;;;;4976920;28;20055;-81
2023/08/13 05:13:48;;;;;;;9.52;4.18;;;15.70;99.90;;;;;;4978324;28;20031;-81
2023/08/13 05:16:13;;;;;;;11.90;3.72;;;15.80;99.90;;;;;;4976547;28;20054;-80
2023/08/13 05:18:39;;;;;;;10.45;4.10;;;15.80;99.90;;;;;;4986463;28;20185;-81
2023/08/13 05:21:06;;;;;;;10.95;3.83;;;15.80;99.90;;;;;;4982902;28;20503;-80
2023/08/13 05:23:31;;;;;;;8.68;3.55;;;15.90;99.90;;;;;;4966192;28;20097;-82
2023/08/13 05:25:57;;;;;;;12.18;3.75;;;15.80;99.90;;;;;;4979227;28;20117;-81
2023/08/13 05:28:23;;;;;;;10.27;4.15;;;15.80;99.90;;;;;;4977721;28;20038;-81
2023/08/13 05:30:48;;;;;;;12.40;4.63;;;15.80;99.90;;;;;;4989371;28;20400;-81
2023/08/13 05:33:14;;;;;;;11.30;4.03;;;15.90;99.90;;;;;;4987752;28;20046;-81
2023/08/13 05:35:40;;;;;;;8.95;3.58;;;16.40;99.90;;;;;;4989934;28;20074;-80
2023/08/13 05:38:05;;;;;;;10.77;3.78;;;16.10;99.90;;;;;;4988586;28;20473;-80
2023/08/13 05:40:31;;;;;;;8.48;3.80;;;16.20;99.90;;;;;;4986468;28;20133;-81
2023/08/13 05:42:57;;;;;;;8.80;3.80;;;16.50;99.90;;;;;;4988560;28;20047;-82
2023/08/13 05:45:22;;;;;;;11.82;3.85;;;16.50;99.90;;;;;;4988993;28;20041;-81
2023/08/13 05:47:48;;;;;;;11.85;3.85;;;16.60;99.90;;;;;;4970199;28;20101;-85
2023/08/13 05:50:13;;;;;;;13.13;4.25;;;16.70;99.90;;;;;;4987070;28;20053;-83
2023/08/13 05:52:39;;;;;;;7.93;4.22;;;16.70;99.90;;;;;;4987448;28;20101;-82
2023/08/13 05:55:05;;;;;;;7.68;4.05;;;16.70;99.90;;;;;;4986243;28;20082;-83
2023/08/13 05:57:31;;;;;;;8.10;3.88;;;16.80;99.90;;;;;;4987715;28;20479;-83
2023/08/13 05:59:57;;;;;;;9.80;4.18;;;17.10;99.90;;;;;;4988003;28;20043;-82
2023/08/13 06:02:22;;;;;;;11.85;4.00;;;17.30;99.90;;;;;;4989313;28;20057;-83
2023/08/13 06:04:48;;;;;;;9.35;4.00;;;17.50;99.90;;;;;;4985375;28;20039;-83
2023/08/13 06:07:14;;;;;;;11.20;4.15;;;17.90;99.90;;;;;;4987698;28;20040;-84
2023/08/13 06:09:39;;;;;;;12.20;3.60;;;18.10;99.90;;;;;;4987779;28;20113;-84
2023/08/13 06:12:06;;;;;;;13.18;4.20;;;18.80;99.90;;;;;;4988524;28;20078;-83
2023/08/13 06:14:31;;;;;;;11.75;4.47;;;19.40;99.90;;;;;;4987850;28;20051;-82
2023/08/13 06:16:57;;;;;;;11.50;4.10;;;20.00;99.90;;;;;;4989050;28;20093;-84
2023/08/13 06:19:22;;;;;;;8.27;3.67;;;20.00;99.90;;;;;;4988132;28;20109;-84
2023/08/13 06:21:48;;;;;;;7.78;4.30;;;19.40;99.90;;;;;;4975075;28;20054;-86
2023/08/13 06:24:13;;;;;;;9.05;3.83;;;19.10;99.90;;;;;;4977392;28;20038;-84
2023/08/13 06:26:39;;;;;;;10.25;3.95;;;18.80;99.90;;;;;;4985630;28;20069;-84
2023/08/13 06:29:04;;;;;;;10.07;3.85;;;18.50;99.90;;;;;;4970332;28;20043;-83
2023/08/13 06:31:30;;;;;;;10.73;4.43;;;18.40;99.90;;;;;;4969295;28;20141;-83
2023/08/13 06:33:56;;;;;;;8.70;3.65;;;18.30;99.90;;;;;;4967410;28;20043;-82
2023/08/13 06:36:21;;;;;;;7.85;3.53;;;18.20;99.90;;;;;;4977738;28;20093;-83
2023/08/13 06:38:47;;;;;;;9.70;3.50;;;18.20;99.90;;;;;;4987789;28;20054;-83
2023/08/13 06:41:12;;;;;;;12.30;4.38;;;18.10;99.90;;;;;;4986618;28;20117;-83
2023/08/13 06:43:38;;;;;;;10.70;4.10;;;18.20;99.90;;;;;;4987997;28;20048;-83
2023/08/13 06:46:04;;;;;;;8.18;3.63;;;18.30;99.90;;;;;;4987961;28;20046;-83
2023/08/13 06:48:32;;;;;;;10.13;3.97;;;18.40;99.90;;;;;;4988261;28;20060;-83
2023/08/13 06:50:58;;;;;;;13.27;3.95;;;18.50;99.90;;;;;;4988578;28;20106;-83
2023/08/13 06:53:24;;;;;;;11.68;3.85;;;18.60;99.90;;;;;;4987677;28;20042;-83
2023/08/13 06:55:51;;;;;;;10.48;3.95;;;18.70;99.90;;;;;;4988884;28;20043;-83
2023/08/13 06:58:17;;;;;;;8.23;4.00;;;18.90;99.90;;;;;;4987423;28;20109;-83
2023/08/13 07:00:43;;;;;;;11.20;3.38;;;19.00;99.90;;;;;;4988464;28;20484;-83
2023/08/13 07:03:09;;;;;;;8.45;3.75;;;19.10;99.90;;;;;;4988191;28;20125;-83
2023/08/13 07:05:42;;;;;;;9.40;3.72;;;19.10;99.90;;;;;;4969911;28;20162;-82
2023/08/13 07:08:09;;;;;;;11.15;3.65;;;19.20;99.90;;;;;;4986804;28;20046;-83
2023/08/13 07:10:35;;;;;;;12.90;3.80;;;19.30;99.90;;;;;;4987124;28;20095;-82
2023/08/13 07:13:01;;;;;;;8.02;3.50;;;19.30;99.90;;;;;;4987719;28;20053;-82
2023/08/13 07:15:26;;;;;;;11.52;3.95;;;19.40;99.90;;;;;;4987029;28;20042;-83
2023/08/13 07:17:52;;;;;;;6.78;3.50;;;19.60;99.90;;;;;;4988391;28;20069;-83
2023/08/13 07:20:17;;;;;;;10.18;4.32;;;19.70;99.90;;;;;;4987250;28;20080;-83
2023/08/13 07:22:45;;;;;;;7.35;3.85;;;19.80;99.90;;;;;;4970658;28;20053;-82
2023/08/13 07:25:12;;;;;;;8.68;3.70;;;19.80;99.90;;;;;;4987419;28;20045;-83
2023/08/13 07:27:39;;;;;;;8.93;3.80;;;19.90;99.90;;;;;;4986247;28;20085;-83
2023/08/13 07:30:07;;;;;;;8.85;3.33;;;19.90;99.90;;;;;;4968919;28;20117;-83
2023/08/13 07:32:37;;;;;;;11.07;3.50;;;20.00;99.90;;;;;;4985468;28;20171;-83
2023/08/13 07:35:03;;;;;;;9.45;3.13;;;20.10;99.90;;;;;;4985217;28;20046;-83
2023/08/13 07:37:29;;;;;;;7.53;2.55;;;20.20;99.90;;;;;;4986919;28;20053;-83
2023/08/13 07:39:55;;;;;;;10.02;2.70;;;20.20;99.90;;;;;;4986343;28;20069;-83
2023/08/13 07:42:21;;;;;;;6.82;2.35;;;20.30;99.90;;;;;;4987744;28;20053;-84
2023/08/13 07:44:49;;;;;;;7.07;2.53;;;20.30;99.90;;;;;;4987787;28;20042;-82
2023/08/13 07:47:15;;;;;;;7.47;2.88;;;20.30;99.90;;;;;;4986884;28;20058;-83
2023/08/13 07:49:41;;;;;;;7.10;2.33;;;20.20;99.90;;;;;;4986623;28;20054;-83
2023/08/13 07:52:06;;;;;;;8.38;2.50;;;20.30;99.90;;;;;;4986010;28;20137;-83
2023/08/13 07:54:32;;;;;;;10.00;2.60;;;20.60;99.90;;;;;;4987206;28;20074;-83
2023/08/13 07:56:57;;;;;;;6.57;2.63;;;20.20;99.90;;;;;;4987782;28;20439;-83
2023/08/13 07:59:23;;;;;;;8.40;2.88;;;20.30;99.90;;;;;;4987283;28;20047;-84
2023/08/13 08:01:49;;;;;;;8.30;2.80;;;20.30;99.90;;;;;;4985969;28;20042;-83
2023/08/13 08:04:15;;;;;;;7.38;2.75;;;20.40;99.90;;;;;;4987319;28;20184;-82
2023/08/13 08:06:41;;;;;;;6.25;2.47;;;20.50;99.90;;;;;;4991026;28;20133;-83
2023/08/13 08:09:06;;;;;;;7.82;2.92;;;21.00;99.90;;;;;;5006310;28;20130;-84
2023/08/13 08:11:32;;;;;;;6.93;2.53;;;20.80;99.90;;;;;;4990734;28;20054;-83
2023/08/13 08:13:58;;;;;;;9.40;3.15;;;21.00;99.90;;;;;;4991065;28;20050;-83
2023/08/13 08:16:23;;;;;;;6.20;2.83;;;20.90;99.90;;;;;;4991187;28;20042;-83
2023/08/13 08:18:49;;;;;;;6.60;2.78;;;21.00;99.90;;;;;;4988646;28;20120;-82
2023/08/13 08:21:14;;;;;;;6.05;2.35;;;21.00;99.90;;;;;;4971693;28;20572;-83
2023/08/13 08:23:40;;;;;;;5.35;2.58;;;21.10;99.90;;;;;;4971118;28;20066;-83
2023/08/13 08:26:06;;;;;;;6.28;2.35;;;21.10;99.90;;;;;;4988227;28;20533;-83
2023/08/13 08:28:31;;;;;;;8.38;2.47;;;21.10;99.90;;;;;;4989524;28;20133;-83
2023/08/13 08:30:57;;;;;;;9.85;2.85;;;21.10;99.90;;;;;;4985237;28;20453;-83
2023/08/13 08:33:23;;;;;;;10.75;5.45;;;21.20;99.90;;;;;;4988937;28;20049;-83
2023/08/13 08:35:49;;;;;;;8.32;2.90;;;21.30;99.90;;;;;;4989490;28;20050;-82
2023/08/13 08:38:15;;;;;;;7.13;2.75;;;21.40;99.90;;;;;;4990241;28;20058;-82
2023/08/13 08:40:47;;;;;;;8.98;2.92;;;21.50;99.90;;;;;;4989284;28;20581;-83
2023/08/13 08:43:13;;;;;;;6.50;2.35;;;21.70;99.90;;;;;;4990555;28;20046;-83
2023/08/13 08:45:39;;;;;;;5.90;2.25;;;22.00;99.90;;;;;;4990517;28;20125;-82
2023/08/13 08:48:06;;;;;;;6.00;2.47;;;22.10;99.90;;;;;;4990857;28;20042;-83
2023/08/13 08:50:35;;;;;;;7.28;2.75;;;22.10;99.90;;;;;;4988816;28;20057;-83
2023/08/13 08:53:01;;;;;;;6.50;2.22;;;22.10;99.90;;;;;;4990488;28;20053;-84
2023/08/13 08:55:27;;;;;;;6.45;2.17;;;22.20;99.90;;;;;;4989277;28;20104;-82
2023/08/13 08:57:54;;;;;;;6.22;2.25;;;22.00;99.90;;;;;;4989082;28;20046;-83
2023/08/13 09:00:20;;;;;;;6.75;2.60;;;22.30;99.90;;;;;;4988846;28;20120;-83
2023/08/13 09:02:49;;;;;;;7.90;2.38;;;22.20;99.90;;;;;;4989137;28;20408;-83
2023/08/13 09:05:15;;;;;;;5.95;2.03;;;22.20;99.90;;;;;;4990565;28;20070;-82
2023/08/13 09:07:42;;;;;;;10.00;2.47;;;22.30;99.90;;;;;;4990110;28;20384;-83
2023/08/13 09:10:08;;;;;;;6.35;1.88;;;22.40;99.90;;;;;;4989906;28;20125;-83
2023/08/13 09:12:40;;;;;;;5.68;2.00;;;22.40;99.90;;;;;;4988796;28;20050;-83
2023/08/13 09:15:11;;;;;;;5.32;2.17;;;22.40;99.90;;;;;;4988405;28;20117;-83
2023/08/13 09:17:38;;;;;;;3.97;1.75;;;22.40;99.90;;;;;;4990292;28;20829;-81
2023/08/13 09:20:20;;;;;;;7.45;1.95;;;22.60;99.90;;;;;;4989588;28;20072;-81
2023/08/13 09:22:47;;;;;;;7.72;2.35;;;22.40;99.90;;;;;;4988484;28;20065;-79
2023/08/13 09:25:19;;;;;;;7.72;2.67;;;22.50;99.90;;;;;;4987540;28;20042;-84
2023/08/13 09:27:45;;;;;;;6.47;2.33;;;22.40;99.90;;;;;;4988402;28;20090;-82
2023/08/13 09:30:18;;;;;;;6.53;2.20;;;22.50;99.90;;;;;;4986488;28;20065;-83
2023/08/13 09:32:46;;;;;;;7.72;2.00;;;22.50;99.90;;;;;;4986561;28;20045;-82
2023/08/13 09:35:11;;;;;;;7.25;2.10;;;22.40;99.90;;;;;;4971681;28;20130;-82
2023/08/13 09:37:38;;;;;;;4.95;1.55;;;22.60;99.90;;;;;;4987592;28;20472;-84
2023/08/13 09:40:05;;;;;;;5.10;2.17;;;22.50;99.90;;;;;;4987314;28;20058;-82
2023/08/13 09:42:33;;;;;;;5.00;1.92;;;22.60;99.90;;;;;;4986619;28;20050;-82
2023/08/13 09:45:02;;;;;;;4.97;1.63;;;22.80;99.90;;;;;;5004667;28;20054;-82
2023/08/13 09:47:29;;;;;;;4.70;1.65;;;22.70;99.90;;;;;;5002100;28;20133;-82
2023/08/13 09:49:57;;;;;;;4.88;1.60;;;22.70;99.90;;;;;;5008753;28;20129;-82
2023/08/13 09:52:25;;;;;;;3.75;1.45;;;22.80;99.90;;;;;;5007797;28;20899;-83
2023/08/13 09:55:12;;;;;;;5.03;1.88;;;22.90;99.90;;;;;;5007520;28;20168;-82
2023/08/13 09:57:40;;;;;;;5.25;1.60;;;23.10;99.90;;;;;;5007746;28;20046;-81
2023/08/13 10:00:08;;;;;;;3.83;1.50;;;23.30;99.90;;;;;;4999471;28;20814;-82
2023/08/13 10:02:35;;;;;;;5.55;1.70;;;23.40;99.90;;;;;;4984013;28;20043;-82
2023/08/13 10:05:02;;;;;;;5.85;1.55;;;23.50;99.90;;;;;;4987200;28;20066;-83
2023/08/13 10:07:28;;;;;;;3.47;1.33;;;23.60;99.90;;;;;;4986733;28;20074;-83
2023/08/13 10:09:54;;;;;;;2.72;1.20;;;23.60;99.90;;;;;;4988983;28;20068;-82
2023/08/13 10:12:21;;;;;;;4.03;1.50;;;23.50;99.90;;;;;;4988533;28;20408;-82
2023/08/13 10:14:48;;;;;;;2.55;1.40;;;23.30;99.90;;;;;;4975458;28;20394;-82
2023/08/13 10:17:18;;;;;;;4.85;1.60;;;23.30;99.90;;;;;;4976223;28;20421;-84
2023/08/13 10:19:49;;;;;;;3.85;1.60;;;23.30;99.90;;;;;;4979834;28;20105;-85
2023/08/13 10:22:22;;;;;;;9.02;1.65;;;23.40;99.90;;;;;;4987861;28;20082;-83
2023/08/13 10:24:48;;;;;;;4.00;1.50;;;23.30;99.90;;;;;;4985671;28;20050;-80
2023/08/13 10:27:14;;;;;;;4.35;1.55;;;23.10;99.90;;;;;;4970942;28;20042;-81
2023/08/13 10:29:42;;;;;;;4.28;1.52;;;23.00;99.90;;;;;;4967869;28;20509;-81
2023/08/13 10:32:26;;;;;;;4.65;1.42;;;22.90;99.90;;;;;;4973368;28;20042;-82
2023/08/13 10:34:51;;;;;;;4.43;1.40;;;22.90;99.90;;;;;;4974376;28;20416;-82
2023/08/13 10:37:19;;;;;;;2.97;1.23;;;22.80;99.90;;;;;;4974793;28;20053;-82
2023/08/13 10:39:47;;;;;;;4.45;1.20;;;22.80;99.90;;;;;;5004132;28;20050;-82
2023/08/13 10:42:36;;;;;;;2.15;1.10;;;22.90;99.90;;;;;;5008102;28;20053;-82
2023/08/13 10:45:07;;;;;;;3.83;1.40;;;22.80;99.90;;;;;;5003919;28;20551;-82
2023/08/13 10:47:48;;;;;;;1.65;0.80;;;23.00;99.90;;;;;;4983926;28;20085;-82
2023/08/13 10:50:21;;;;;;;2.17;0.98;;;23.10;99.90;;;;;;4976817;28;20050;-81
2023/08/13 10:52:54;;;;;;;2.35;0.90;;;23.10;99.90;;;;;;4986537;28;20405;-81
2023/08/13 10:55:23;;;;;;;1.48;0.70;;;23.10;99.90;;;;;;4987452;28;20058;-80
2023/08/13 10:57:53;;;;;;;3.38;0.77;;;23.00;99.90;;;;;;4965021;28;20046;-81
2023/08/13 11:00:23;;;;;;;3.90;0.80;;;23.00;99.90;;;;;;4985040;28;20523;-82
2023/08/13 11:03:15;;;;;;;3.47;1.00;;;23.10;99.90;;;;;;4986439;28;20101;-82
2023/08/13 11:05:42;;;;;;;2.78;0.82;;;22.90;99.90;;;;;;4986169;28;20042;-82
2023/08/13 11:08:08;;;;;;;2.92;0.90;;;22.90;99.90;;;;;;4985564;28;20766;-82
2023/08/13 11:10:35;;;;;;;1.70;0.95;;;22.80;99.90;;;;;;4986629;28;20061;-81
2023/08/13 11:13:05;;;;;;;2.20;1.00;;;22.80;99.90;;;;;;4985968;28;20053;-82
2023/08/13 11:15:30;;;;;;;2.63;1.02;;;22.90;99.90;;;;;;4985292;28;20089;-78
2023/08/13 11:17:56;;;;;;;3.25;1.00;;;22.90;99.90;;;;;;4988038;28;20645;-80
2023/08/13 11:20:21;;;;;;;3.30;1.40;;;22.90;99.90;;;;;;4987415;28;20085;-79
2023/08/13 11:22:47;;;;;;;2.75;1.00;;;22.90;99.90;;;;;;4986770;28;20138;-80
2023/08/13 11:25:16;;;;;;;2.65;0.88;;;22.80;99.90;;;;;;4987008;28;20514;-79
2023/08/13 11:27:41;;;;;;;6.28;1.27;;;22.80;99.90;;;;;;4979948;28;20051;-80
2023/08/13 11:30:08;;;;;;;3.33;0.98;;;22.60;99.90;;;;;;4984483;28;20112;-79
2023/08/13 11:32:38;;;;;;;2.78;1.02;;;22.60;99.90;;;;;;4982274;28;20056;-79
2023/08/13 11:35:11;;;;;;;3.00;0.90;;;22.50;99.90;;;;;;4982985;28;20458;-80
2023/08/13 11:37:38;;;;;;;5.35;1.30;;;22.60;99.90;;;;;;4982851;28;20504;-79
2023/08/13 11:40:05;;;;;;;2.92;1.00;;;22.70;99.90;;;;;;4986378;28;20137;-80
2023/08/13 11:42:32;;;;;;;2.25;1.00;;;22.80;99.90;;;;;;4988026;28;20039;-80
2023/08/13 11:44:57;;;;;;;3.00;1.02;;;22.90;99.90;;;;;;4989070;28;20400;-80
2023/08/13 11:47:27;;;;;;;3.85;1.00;;;23.00;99.90;;;;;;4988323;28;20622;-78
2023/08/13 11:49:54;;;;;;;5.32;1.30;;;23.10;99.90;;;;;;4986493;28;20120;-78
2023/08/13 11:52:21;;;;;;;3.60;1.17;;;23.10;99.90;;;;;;4990904;28;20060;-78
2023/08/13 11:54:47;;;;;;;4.95;1.30;;;23.10;99.90;;;;;;4989427;28;20137;-78
2023/08/13 11:57:14;;;;;;;3.35;1.60;;;23.10;99.90;;;;;;4989964;28;20129;-78
2023/08/13 11:59:39;;;;;;;4.75;1.20;;;23.10;99.90;;;;;;4988791;28;20042;-79
2023/08/13 12:02:05;;;;;;;3.50;1.10;;;23.00;99.90;;;;;;4989054;28;20061;-79
2023/08/13 12:04:31;;;;;;;3.50;1.00;;;22.80;99.90;;;;;;4986891;28;20057;-80
2023/08/13 12:06:57;;;;;;;4.07;1.52;;;22.70;99.90;;;;;;4988919;28;20072;-80
2023/08/13 12:09:23;;;;;;;3.88;1.30;;;22.50;99.90;;;;;;4989246;28;20497;-80
2023/08/13 12:11:49;;;;;;;5.43;1.40;;;22.30;99.90;;;;;;4990981;28;20050;-80
2023/08/13 12:14:14;;;;;;;5.15;1.40;;;22.20;99.90;;;;;;4987660;28;20516;-79
2023/08/13 12:16:43;;;;;;;5.78;1.65;;;22.10;99.90;;;;;;4989650;28;20049;-79
2023/08/13 12:19:08;;;;;;;4.35;1.70;;;21.90;99.90;;;;;;4985957;28;20053;-80
2023/08/13 12:21:35;;;;;;;6.97;1.83;;;21.80;99.90;;;;;;4983596;28;20047;-82
2023/08/13 12:24:03;;;;;;;3.75;1.67;;;21.70;99.90;;;;;;4990205;28;20039;-82
2023/08/13 12:26:28;;;;;;;4.75;1.83;;;21.50;99.90;;;;;;4990354;28;20555;-82
2023/08/13 12:28:54;;;;;;;3.40;1.40;;;21.50;99.90;;;;;;4988649;28;20085;-80
2023/08/13 12:31:21;;;;;;;4.25;1.80;;;21.50;99.90;;;;;;4982602;28;20481;-79
2023/08/13 12:33:46;;;;;;;7.15;2.10;;;21.60;99.90;;;;;;4988180;28;20176;-79
2023/08/13 12:36:12;;;;;;;5.68;1.67;;;21.80;99.90;;;;;;4987505;28;20548;-79
2023/08/13 12:38:41;;;;;;;7.85;2.17;;;22.00;99.90;;;;;;4987592;28;20047;-82
2023/08/13 12:41:07;;;;;;;5.43;2.08;;;22.20;99.90;;;;;;4989348;28;20069;-82